sensor_id;sensor_type;location;lat;lon;timestamp;pressure;altitude;pressure_sealevel;temperature;humidity
32237;BME280;18726;44.732;10.550;2023-06-10T00:00:06;100639.00;;;26.88;100.00
32237;BME280;18726;44.732;10.550;2023-06-10T00:03:15;100633.09;;;26.86;100.00
32237;BME280;18726;44.732;10.550;2023-06-10T00:06:18;100632.25;;;26.68;100.00
32237;BME280;18726;44.732;10.550;2023-06-10T00:09:22;100631.91;;;26.56;100.00
32237;BME280;18726;44.732;10.550;2023-06-10T00:12:26;100636.28;;;26.67;100.00
32237;BME280;18726;44.732;10.550;2023-06-10T00:15:32;100639.91;;;26.76;100.00
32237;BME280;18726;44.732;10.550;2023-06-10T00:18:35;100641.44;;;26.77;100.00
32237;BME280;18726;44.732;10.550;2023-06-10T00:21:42;100638.94;;;26.70;100.00
32237;BME280;18726;44.732;10.550;2023-06-10T00:24:48;100636.47;;;26.72;100.00
32237;BME280;18726;44.732;10.550;2023-06-10T00:27:51;100637.06;;;26.67;100.00
32237;BME280;18726;44.732;10.550;2023-06-10T00:30:55;100640.31;;;26.66;100.00
32237;BME280;18726;44.732;10.550;2023-06-10T00:34:01;100635.00;;;26.58;100.00
32237;BME280;18726;44.732;10.550;2023-06-10T00:37:05;100635.50;;;26.66;100.00
32237;BME280;18726;44.732;10.550;2023-06-10T00:40:09;100638.53;;;26.50;100.00
32237;BME280;18726;44.732;10.550;2023-06-10T00:43:13;100637.94;;;26.55;100.00
32237;BME280;18726;44.732;10.550;2023-06-10T00:46:17;100637.56;;;26.75;99.88
32237;BME280;18726;44.732;10.550;2023-06-10T00:49:21;100640.88;;;26.91;100.00
32237;BME280;18726;44.732;10.550;2023-06-10T00:52:27;100628.44;;;26.74;99.17
32237;BME280;18726;44.732;10.550;2023-06-10T00:55:32;100630.13;;;26.72;98.92
32237;BME280;18726;44.732;10.550;2023-06-10T00:58:36;100629.16;;;26.66;100.00
32237;BME280;18726;44.732;10.550;2023-06-10T01:01:41;100629.94;;;26.66;100.00
32237;BME280;18726;44.732;10.550;2023-06-10T01:04:46;100631.00;;;27.00;96.23
32237;BME280;18726;44.732;10.550;2023-06-10T01:11:35;100632.63;;;27.37;90.59
32237;BME280;18726;44.732;10.550;2023-06-10T01:14:40;100636.97;;;27.47;91.06
32237;BME280;18726;44.732;10.550;2023-06-10T01:18:02;100638.66;;;27.45;90.55
32237;BME280;18726;44.732;10.550;2023-06-10T01:21:07;100634.03;;;27.51;89.17
32237;BME280;18726;44.732;10.550;2023-06-10T01:24:12;100646.91;;;27.57;88.66
32237;BME280;18726;44.732;10.550;2023-06-10T01:27:19;100646.13;;;27.57;89.42
32237;BME280;18726;44.732;10.550;2023-06-10T01:30:28;100646.91;;;27.57;89.60
32237;BME280;18726;44.732;10.550;2023-06-10T01:33:35;100641.22;;;27.61;89.64
32237;BME280;18726;44.732;10.550;2023-06-10T01:36:41;100647.03;;;27.45;88.57
32237;BME280;18726;44.732;10.550;2023-06-10T01:39:48;100647.34;;;27.47;90.63
32237;BME280;18726;44.732;10.550;2023-06-10T01:42:52;100644.09;;;27.48;91.11
32237;BME280;18726;44.732;10.550;2023-06-10T01:45:56;100648.13;;;27.29;95.48
32237;BME280;18726;44.732;10.550;2023-06-10T01:49:00;100643.47;;;27.26;91.85
32237;BME280;18726;44.732;10.550;2023-06-10T01:52:04;100640.59;;;26.99;98.39
32237;BME280;18726;44.732;10.550;2023-06-10T01:55:10;100643.34;;;26.89;100.00
32237;BME280;18726;44.732;10.550;2023-06-10T01:58:14;100635.78;;;26.59;100.00
32237;BME280;18726;44.732;10.550;2023-06-10T02:01:18;100635.44;;;26.26;100.00
32237;BME280;18726;44.732;10.550;2023-06-10T02:04:21;100629.88;;;26.48;100.00
32237;BME280;18726;44.732;10.550;2023-06-10T02:07:24;100633.41;;;26.79;96.65
32237;BME280;18726;44.732;10.550;2023-06-10T02:10:28;100632.25;;;26.68;100.00
32237;BME280;18726;44.732;10.550;2023-06-10T02:13:31;100630.72;;;26.36;100.00
32237;BME280;18726;44.732;10.550;2023-06-10T02:16:34;100627.41;;;26.06;100.00
32237;BME280;18726;44.732;10.550;2023-06-10T02:19:38;100625.09;;;26.05;100.00
32237;BME280;18726;44.732;10.550;2023-06-10T02:22:46;100633.13;;;25.81;100.00
32237;BME280;18726;44.732;10.550;2023-06-10T02:25:50;100643.94;;;25.79;100.00
32237;BME280;18726;44.732;10.550;2023-06-10T02:28:55;100642.16;;;25.72;100.00
32237;BME280;18726;44.732;10.550;2023-06-10T02:31:59;100643.44;;;25.46;100.00
32237;BME280;18726;44.732;10.550;2023-06-10T02:35:03;100638.34;;;25.44;100.00
32237;BME280;18726;44.732;10.550;2023-06-10T02:38:07;100645.66;;;25.64;100.00
32237;BME280;18726;44.732;10.550;2023-06-10T02:41:12;100643.28;;;25.75;100.00
32237;BME280;18726;44.732;10.550;2023-06-10T02:44:18;100656.38;;;25.87;100.00
32237;BME280;18726;44.732;10.550;2023-06-10T02:47:23;100650.81;;;25.87;100.00
32237;BME280;18726;44.732;10.550;2023-06-10T02:50:27;100651.22;;;25.64;100.00
32237;BME280;18726;44.732;10.550;2023-06-10T02:53:48;100652.56;;;25.46;100.00
32237;BME280;18726;44.732;10.550;2023-06-10T02:56:52;100656.59;;;25.45;100.00
32237;BME280;18726;44.732;10.550;2023-06-10T03:00:00;100648.63;;;25.35;100.00
32237;BME280;18726;44.732;10.550;2023-06-10T03:03:07;100646.84;;;25.28;100.00
32237;BME280;18726;44.732;10.550;2023-06-10T03:06:20;100637.28;;;25.16;100.00
32237;BME280;18726;44.732;10.550;2023-06-10T03:09:24;100650.41;;;25.16;100.00
32237;BME280;18726;44.732;10.550;2023-06-10T03:12:31;100643.56;;;25.08;100.00
32237;BME280;18726;44.732;10.550;2023-06-10T03:15:35;100642.56;;;25.02;100.00
32237;BME280;18726;44.732;10.550;2023-06-10T03:18:43;100642.53;;;25.14;100.00
32237;BME280;18726;44.732;10.550;2023-06-10T03:21:49;100651.63;;;25.15;100.00
32237;BME280;18726;44.732;10.550;2023-06-10T03:24:54;100649.63;;;25.28;100.00
32237;BME280;18726;44.732;10.550;2023-06-10T03:27:58;100651.41;;;25.35;100.00
32237;BME280;18726;44.732;10.550;2023-06-10T03:31:02;100648.50;;;25.38;100.00
32237;BME280;18726;44.732;10.550;2023-06-10T03:34:08;100650.94;;;25.36;100.00
32237;BME280;18726;44.732;10.550;2023-06-10T03:37:12;100659.69;;;25.47;100.00
32237;BME280;18726;44.732;10.550;2023-06-10T03:40:16;100656.47;;;25.49;100.00
32237;BME280;18726;44.732;10.550;2023-06-10T03:43:23;100654.06;;;25.73;100.00
32237;BME280;18726;44.732;10.550;2023-06-10T03:46:29;100653.66;;;25.96;100.00
32237;BME280;18726;44.732;10.550;2023-06-10T03:49:33;100660.69;;;26.10;100.00
32237;BME280;18726;44.732;10.550;2023-06-10T03:52:39;100649.44;;;25.92;100.00
32237;BME280;18726;44.732;10.550;2023-06-10T03:55:43;100655.31;;;25.72;100.00
32237;BME280;18726;44.732;10.550;2023-06-10T03:58:48;100660.28;;;25.77;100.00
32237;BME280;18726;44.732;10.550;2023-06-10T04:01:52;100658.56;;;25.92;100.00
32237;BME280;18726;44.732;10.550;2023-06-10T04:04:56;100660.91;;;25.94;100.00
32237;BME280;18726;44.732;10.550;2023-06-10T04:07:59;100663.41;;;25.79;100.00
32237;BME280;18726;44.732;10.550;2023-06-10T04:11:03;100661.84;;;25.78;100.00
32237;BME280;18726;44.732;10.550;2023-06-10T04:14:06;100664.31;;;25.76;100.00
32237;BME280;18726;44.732;10.550;2023-06-10T04:17:12;100667.75;;;25.80;100.00
32237;BME280;18726;44.732;10.550;2023-06-10T04:20:15;100661.47;;;25.88;100.00
32237;BME280;18726;44.732;10.550;2023-06-10T04:23:22;100662.25;;;25.89;100.00
32237;BME280;18726;44.732;10.550;2023-06-10T04:26:26;100660.59;;;25.92;100.00
32237;BME280;18726;44.732;10.550;2023-06-10T04:29:31;100652.94;;;25.83;100.00
32237;BME280;18726;44.732;10.550;2023-06-10T04:32:34;100653.44;;;25.69;100.00
32237;BME280;18726;44.732;10.550;2023-06-10T04:35:38;100653.50;;;25.78;100.00
32237;BME280;18726;44.732;10.550;2023-06-10T04:38:44;100657.22;;;25.97;100.00
32237;BME280;18726;44.732;10.550;2023-06-10T04:41:48;100660.31;;;26.20;100.00
32237;BME280;18726;44.732;10.550;2023-06-10T04:44:52;100658.03;;;26.28;100.00
32237;BME280;18726;44.732;10.550;2023-06-10T04:47:56;100663.28;;;26.48;100.00
32237;BME280;18726;44.732;10.550;2023-06-10T04:51:01;100660.25;;;26.55;100.00
32237;BME280;18726;44.732;10.550;2023-06-10T04:54:05;100660.19;;;26.46;100.00
32237;BME280;18726;44.732;10.550;2023-06-10T04:57:08;100663.44;;;26.44;100.00
32237;BME280;18726;44.732;10.550;2023-06-10T05:00:12;100663.09;;;26.42;100.00
32237;BME280;18726;44.732;10.550;2023-06-10T05:03:16;100658.91;;;26.38;100.00
32237;BME280;18726;44.732;10.550;2023-06-10T05:06:20;100661.16;;;26.52;100.00
32237;BME280;18726;44.732;10.550;2023-06-10T05:09:23;100668.16;;;26.66;100.00
32237;BME280;18726;44.732;10.550;2023-06-10T05:12:27;100666.41;;;26.81;100.00
32237;BME280;18726;44.732;10.550;2023-06-10T05:15:30;100666.28;;;26.94;100.00
32237;BME280;18726;44.732;10.550;2023-06-10T05:18:34;100664.06;;;26.88;100.00
32237;BME280;18726;44.732;10.550;2023-06-10T05:21:38;100657.84;;;27.06;100.00
32237;BME280;18726;44.732;10.550;2023-06-10T05:24:42;100665.25;;;27.00;100.00
32237;BME280;18726;44.732;10.550;2023-06-10T05:27:47;100663.56;;;27.03;100.00
32237;BME280;18726;44.732;10.550;2023-06-10T05:30:51;100671.00;;;27.15;100.00
32237;BME280;18726;44.732;10.550;2023-06-10T05:33:55;100671.06;;;27.33;100.00
32237;BME280;18726;44.732;10.550;2023-06-10T05:36:58;100672.19;;;27.54;100.00
32237;BME280;18726;44.732;10.550;2023-06-10T05:40:02;100675.16;;;27.60;100.00
32237;BME280;18726;44.732;10.550;2023-06-10T05:43:08;100661.34;;;27.74;100.00
32237;BME280;18726;44.732;10.550;2023-06-10T05:46:12;100671.28;;;27.84;100.00
32237;BME280;18726;44.732;10.550;2023-06-10T05:49:16;100670.97;;;27.92;100.00
32237;BME280;18726;44.732;10.550;2023-06-10T05:52:20;100666.78;;;28.23;99.46
32237;BME280;18726;44.732;10.550;2023-06-10T05:55:24;100670.44;;;28.48;96.52
32237;BME280;18726;44.732;10.550;2023-06-10T05:58:27;100669.75;;;28.71;94.80
32237;BME280;18726;44.732;10.550;2023-06-10T06:01:30;100669.41;;;28.78;93.81
32237;BME280;18726;44.732;10.550;2023-06-10T06:04:34;100669.72;;;28.80;95.20
32237;BME280;18726;44.732;10.550;2023-06-10T06:07:38;100671.59;;;28.83;96.81
32237;BME280;18726;44.732;10.550;2023-06-10T06:10:41;100673.56;;;28.92;95.77
32237;BME280;18726;44.732;10.550;2023-06-10T06:13:44;100682.63;;;28.87;97.81
32237;BME280;18726;44.732;10.550;2023-06-10T06:16:48;100688.00;;;28.90;97.88
32237;BME280;18726;44.732;10.550;2023-06-10T06:19:52;100680.03;;;29.07;96.54
32237;BME280;18726;44.732;10.550;2023-06-10T06:22:55;100685.75;;;29.13;95.56
32237;BME280;18726;44.732;10.550;2023-06-10T06:25:58;100681.63;;;29.23;96.35
32237;BME280;18726;44.732;10.550;2023-06-10T06:29:02;100680.09;;;29.22;95.20
32237;BME280;18726;44.732;10.550;2023-06-10T06:32:06;100684.69;;;29.34;94.08
32237;BME280;18726;44.732;10.550;2023-06-10T06:35:09;100678.09;;;29.46;92.37
32237;BME280;18726;44.732;10.550;2023-06-10T06:38:13;100684.34;;;29.65;89.93
32237;BME280;18726;44.732;10.550;2023-06-10T06:41:17;100692.19;;;29.76;89.21
32237;BME280;18726;44.732;10.550;2023-06-10T06:44:21;100695.22;;;29.87;89.09
32237;BME280;18726;44.732;10.550;2023-06-10T06:47:30;100687.16;;;30.04;84.39
32237;BME280;18726;44.732;10.550;2023-06-10T06:50:33;100686.66;;;30.05;83.79
32237;BME280;18726;44.732;10.550;2023-06-10T06:53:36;100689.91;;;30.28;82.05
32237;BME280;18726;44.732;10.550;2023-06-10T06:56:40;100686.03;;;30.54;79.68
32237;BME280;18726;44.732;10.550;2023-06-10T06:59:44;100689.13;;;30.71;77.35
32237;BME280;18726;44.732;10.550;2023-06-10T07:02:48;100693.94;;;30.85;75.59
32237;BME280;18726;44.732;10.550;2023-06-10T07:05:52;100694.66;;;31.01;75.71
32237;BME280;18726;44.732;10.550;2023-06-10T07:08:55;100688.16;;;31.44;75.11
32237;BME280;18726;44.732;10.550;2023-06-10T07:11:59;100691.84;;;31.71;73.54
32237;BME280;18726;44.732;10.550;2023-06-10T07:15:03;100687.31;;;31.59;73.00
32237;BME280;18726;44.732;10.550;2023-06-10T07:18:07;100687.22;;;31.68;72.63
32237;BME280;18726;44.732;10.550;2023-06-10T07:21:10;100689.44;;;31.84;70.90
32237;BME280;18726;44.732;10.550;2023-06-10T07:24:13;100691.16;;;32.02;71.35
32237;BME280;18726;44.732;10.550;2023-06-10T07:27:17;100691.75;;;32.11;70.22
32237;BME280;18726;44.732;10.550;2023-06-10T07:30:21;100699.44;;;32.37;69.34
32237;BME280;18726;44.732;10.550;2023-06-10T07:33:25;100696.56;;;32.57;69.08
32237;BME280;18726;44.732;10.550;2023-06-10T07:36:29;100693.34;;;32.70;64.67
32237;BME280;18726;44.732;10.550;2023-06-10T07:39:33;100685.94;;;32.72;64.96
32237;BME280;18726;44.732;10.550;2023-06-10T07:42:36;100689.47;;;32.99;63.24
32237;BME280;18726;44.732;10.550;2023-06-10T07:45:40;100695.72;;;33.14;63.14
32237;BME280;18726;44.732;10.550;2023-06-10T07:48:44;100695.53;;;32.86;62.06
32237;BME280;18726;44.732;10.550;2023-06-10T07:51:47;100691.75;;;32.95;62.99
32237;BME280;18726;44.732;10.550;2023-06-10T07:54:52;100699.19;;;32.98;64.26
32237;BME280;18726;44.732;10.550;2023-06-10T07:57:55;100689.97;;;32.92;65.39
32237;BME280;18726;44.732;10.550;2023-06-10T08:00:59;100690.28;;;33.05;65.53
32237;BME280;18726;44.732;10.550;2023-06-10T08:04:03;100693.78;;;32.88;62.60
32237;BME280;18726;44.732;10.550;2023-06-10T08:07:07;100692.28;;;32.99;62.88
32237;BME280;18726;44.732;10.550;2023-06-10T08:10:11;100687.19;;;32.71;63.10
32237;BME280;18726;44.732;10.550;2023-06-10T08:13:14;100686.38;;;32.65;65.35
32237;BME280;18726;44.732;10.550;2023-06-10T08:16:18;100684.66;;;32.42;67.11
32237;BME280;18726;44.732;10.550;2023-06-10T08:19:21;100683.41;;;32.43;65.60
32237;BME280;18726;44.732;10.550;2023-06-10T08:22:25;100688.19;;;32.37;67.60
32237;BME280;18726;44.732;10.550;2023-06-10T08:25:28;100694.28;;;32.30;68.17
32237;BME280;18726;44.732;10.550;2023-06-10T08:28:32;100691.59;;;32.20;67.16
32237;BME280;18726;44.732;10.550;2023-06-10T08:31:36;100694.72;;;32.22;67.84
32237;BME280;18726;44.732;10.550;2023-06-10T08:34:39;100695.06;;;32.10;68.61
32237;BME280;18726;44.732;10.550;2023-06-10T08:37:43;100691.47;;;32.09;71.26
32237;BME280;18726;44.732;10.550;2023-06-10T08:40:47;100695.03;;;32.04;72.66
32237;BME280;18726;44.732;10.550;2023-06-10T08:47:15;100695.63;;;31.68;73.29
32237;BME280;18726;44.732;10.550;2023-06-10T08:50:19;100702.22;;;31.65;73.91
32237;BME280;18726;44.732;10.550;2023-06-10T08:53:24;100698.34;;;31.42;74.62
32237;BME280;18726;44.732;10.550;2023-06-10T08:56:29;100691.50;;;31.28;73.09
32237;BME280;18726;44.732;10.550;2023-06-10T08:59:36;100690.41;;;31.05;76.56
32237;BME280;18726;44.732;10.550;2023-06-10T09:02:39;100688.94;;;31.10;76.56
32237;BME280;18726;44.732;10.550;2023-06-10T09:05:43;100694.47;;;31.04;76.00
32237;BME280;18726;44.732;10.550;2023-06-10T09:08:47;100696.69;;;31.00;77.99
32237;BME280;18726;44.732;10.550;2023-06-10T09:11:51;100695.81;;;31.09;77.90
32237;BME280;18726;44.732;10.550;2023-06-10T09:14:55;100695.44;;;31.16;72.86
32237;BME280;18726;44.732;10.550;2023-06-10T09:17:59;100687.06;;;31.21;73.14
32237;BME280;18726;44.732;10.550;2023-06-10T09:21:03;100695.66;;;31.33;73.30
32237;BME280;18726;44.732;10.550;2023-06-10T09:24:07;100698.63;;;31.09;77.02
32237;BME280;18726;44.732;10.550;2023-06-10T09:27:11;100698.16;;;30.96;77.26
32237;BME280;18726;44.732;10.550;2023-06-10T09:30:28;100701.59;;;30.85;77.34
32237;BME280;18726;44.732;10.550;2023-06-10T09:33:33;100700.34;;;30.86;78.48
32237;BME280;18726;44.732;10.550;2023-06-10T09:36:41;100709.22;;;30.84;79.16
32237;BME280;18726;44.732;10.550;2023-06-10T09:39:44;100705.16;;;30.85;79.72
32237;BME280;18726;44.732;10.550;2023-06-10T09:42:58;100708.84;;;30.77;78.46
32237;BME280;18726;44.732;10.550;2023-06-10T09:46:02;100713.28;;;30.83;80.43
32237;BME280;18726;44.732;10.550;2023-06-10T09:49:06;100710.00;;;30.70;79.58
32237;BME280;18726;44.732;10.550;2023-06-10T09:52:10;100711.94;;;30.64;81.57
32237;BME280;18726;44.732;10.550;2023-06-10T09:55:14;100705.75;;;30.75;81.20
32237;BME280;18726;44.732;10.550;2023-06-10T09:58:17;100702.94;;;30.89;80.87
32237;BME280;18726;44.732;10.550;2023-06-10T10:01:21;100706.72;;;30.86;79.38
32237;BME280;18726;44.732;10.550;2023-06-10T10:04:26;100704.38;;;30.41;75.01
32237;BME280;18726;44.732;10.550;2023-06-10T10:07:30;100700.00;;;30.10;81.82
32237;BME280;18726;44.732;10.550;2023-06-10T10:10:34;100713.88;;;30.29;81.75
32237;BME280;18726;44.732;10.550;2023-06-10T10:13:38;100706.91;;;30.24;79.38
32237;BME280;18726;44.732;10.550;2023-06-10T10:16:43;100712.78;;;30.41;83.93
32237;BME280;18726;44.732;10.550;2023-06-10T10:19:53;100713.84;;;30.43;80.80
32237;BME280;18726;44.732;10.550;2023-06-10T10:22:57;100706.69;;;30.42;81.04
32237;BME280;18726;44.732;10.550;2023-06-10T10:26:04;100709.91;;;30.50;83.22
32237;BME280;18726;44.732;10.550;2023-06-10T10:29:13;100700.53;;;30.53;81.75
32237;BME280;18726;44.732;10.550;2023-06-10T10:32:18;100702.06;;;30.54;81.21
32237;BME280;18726;44.732;10.550;2023-06-10T10:35:25;100701.31;;;30.53;81.78
32237;BME280;18726;44.732;10.550;2023-06-10T10:38:29;100686.41;;;30.62;83.32
32237;BME280;18726;44.732;10.550;2023-06-10T10:41:36;100702.28;;;30.65;83.24
32237;BME280;18726;44.732;10.550;2023-06-10T10:44:40;100709.03;;;30.73;82.57
32237;BME280;18726;44.732;10.550;2023-06-10T10:47:45;100705.56;;;30.78;81.80
32237;BME280;18726;44.732;10.550;2023-06-10T10:50:56;100695.00;;;30.73;82.33
32237;BME280;18726;44.732;10.550;2023-06-10T10:54:12;100698.09;;;30.75;81.48
32237;BME280;18726;44.732;10.550;2023-06-10T10:57:18;100701.66;;;30.90;82.10
32237;BME280;18726;44.732;10.550;2023-06-10T11:00:36;100690.59;;;31.16;83.57
32237;BME280;18726;44.732;10.550;2023-06-10T11:03:44;100698.13;;;31.45;78.61
32237;BME280;18726;44.732;10.550;2023-06-10T11:06:53;100705.03;;;31.44;78.90
32237;BME280;18726;44.732;10.550;2023-06-10T11:10:12;100700.38;;;31.41;79.82
32237;BME280;18726;44.732;10.550;2023-06-10T11:13:19;100697.91;;;31.49;78.60
32237;BME280;18726;44.732;10.550;2023-06-10T11:16:27;100698.84;;;31.61;79.48
32237;BME280;18726;44.732;10.550;2023-06-10T11:19:35;100692.13;;;31.73;78.60
32237;BME280;18726;44.732;10.550;2023-06-10T11:22:58;100690.47;;;31.66;80.42
32237;BME280;18726;44.732;10.550;2023-06-10T11:29:31;100692.25;;;31.43;80.19
32237;BME280;18726;44.732;10.550;2023-06-10T11:32:35;100684.50;;;31.38;78.22
32237;BME280;18726;44.732;10.550;2023-06-10T11:35:39;100681.28;;;31.66;81.59
32237;BME280;18726;44.732;10.550;2023-06-10T11:38:43;100674.00;;;31.74;79.57
32237;BME280;18726;44.732;10.550;2023-06-10T11:41:47;100682.56;;;32.11;80.08
32237;BME280;18726;44.732;10.550;2023-06-10T11:44:54;100676.63;;;31.83;76.06
32237;BME280;18726;44.732;10.550;2023-06-10T11:47:58;100676.72;;;32.14;77.19
32237;BME280;18726;44.732;10.550;2023-06-10T11:51:08;100668.66;;;31.35;74.98
32237;BME280;18726;44.732;10.550;2023-06-10T11:54:12;100666.94;;;31.23;76.08
32237;BME280;18726;44.732;10.550;2023-06-10T11:57:16;100660.50;;;31.78;77.12
32237;BME280;18726;44.732;10.550;2023-06-10T12:00:23;100667.28;;;30.96;74.79
32237;BME280;18726;44.732;10.550;2023-06-10T12:03:27;100660.91;;;30.31;79.11
32237;BME280;18726;44.732;10.550;2023-06-10T12:10:00;100658.19;;;31.01;77.84
32237;BME280;18726;44.732;10.550;2023-06-10T12:13:04;100654.13;;;31.16;76.41
32237;BME280;18726;44.732;10.550;2023-06-10T12:16:08;100659.78;;;31.22;73.21
32237;BME280;18726;44.732;10.550;2023-06-10T12:19:12;100653.63;;;31.38;72.03
32237;BME280;18726;44.732;10.550;2023-06-10T12:22:17;100648.47;;;31.57;73.57
32237;BME280;18726;44.732;10.550;2023-06-10T12:25:29;100637.38;;;31.48;72.67
32237;BME280;18726;44.732;10.550;2023-06-10T12:28:32;100637.69;;;31.70;73.02
32237;BME280;18726;44.732;10.550;2023-06-10T12:31:58;100641.25;;;31.50;71.71
32237;BME280;18726;44.732;10.550;2023-06-10T12:35:03;100631.38;;;31.35;74.58
32237;BME280;18726;44.732;10.550;2023-06-10T12:38:10;100631.72;;;31.42;75.23
32237;BME280;18726;44.732;10.550;2023-06-10T12:41:15;100634.19;;;32.01;70.91
32237;BME280;18726;44.732;10.550;2023-06-10T12:44:27;100632.16;;;32.65;67.07
32237;BME280;18726;44.732;10.550;2023-06-10T12:47:32;100629.88;;;32.32;66.15
32237;BME280;18726;44.732;10.550;2023-06-10T12:50:40;100615.66;;;31.22;69.60
32237;BME280;18726;44.732;10.550;2023-06-10T12:53:44;100628.16;;;30.86;72.37
32237;BME280;18726;44.732;10.550;2023-06-10T12:56:47;100621.16;;;31.78;65.91
32237;BME280;18726;44.732;10.550;2023-06-10T12:59:51;100614.81;;;31.37;66.30
32237;BME280;18726;44.732;10.550;2023-06-10T13:03:05;100615.78;;;32.26;64.82
32237;BME280;18726;44.732;10.550;2023-06-10T13:06:10;100606.28;;;32.55;62.91
32237;BME280;18726;44.732;10.550;2023-06-10T13:09:14;100615.06;;;32.37;63.67
32237;BME280;18726;44.732;10.550;2023-06-10T13:12:17;100608.84;;;32.96;63.07
32237;BME280;18726;44.732;10.550;2023-06-10T13:15:20;100615.31;;;33.07;63.54
32237;BME280;18726;44.732;10.550;2023-06-10T13:18:24;100604.53;;;32.63;63.18
32237;BME280;18726;44.732;10.550;2023-06-10T13:21:29;100612.75;;;32.35;67.32
32237;BME280;18726;44.732;10.550;2023-06-10T13:24:33;100608.13;;;31.75;67.60
32237;BME280;18726;44.732;10.550;2023-06-10T13:27:36;100598.16;;;32.05;67.23
32237;BME280;18726;44.732;10.550;2023-06-10T13:30:43;100606.56;;;31.53;69.52
32237;BME280;18726;44.732;10.550;2023-06-10T13:33:46;100603.03;;;31.12;71.83
32237;BME280;18726;44.732;10.550;2023-06-10T13:36:50;100604.38;;;31.63;70.16
32237;BME280;18726;44.732;10.550;2023-06-10T13:39:54;100600.19;;;31.99;70.15
32237;BME280;18726;44.732;10.550;2023-06-10T13:42:58;100606.69;;;31.65;69.06
32237;BME280;18726;44.732;10.550;2023-06-10T13:46:01;100598.97;;;30.99;71.09
32237;BME280;18726;44.732;10.550;2023-06-10T13:49:05;100588.69;;;31.31;70.99
32237;BME280;18726;44.732;10.550;2023-06-10T13:52:08;100596.94;;;30.99;69.77
32237;BME280;18726;44.732;10.550;2023-06-10T13:55:12;100588.31;;;31.03;69.91
32237;BME280;18726;44.732;10.550;2023-06-10T13:58:16;100589.59;;;30.02;73.38
32237;BME280;18726;44.732;10.550;2023-06-10T14:01:20;100588.75;;;29.58;75.58
32237;BME280;18726;44.732;10.550;2023-06-10T14:04:23;100583.28;;;29.39;77.72
32237;BME280;18726;44.732;10.550;2023-06-10T14:07:27;100574.50;;;28.42;81.62
32237;BME280;18726;44.732;10.550;2023-06-10T14:10:31;100570.19;;;28.32;85.31
32237;BME280;18726;44.732;10.550;2023-06-10T14:13:35;100564.56;;;28.74;82.34
32237;BME280;18726;44.732;10.550;2023-06-10T14:16:41;100567.66;;;28.52;85.24
32237;BME280;18726;44.732;10.550;2023-06-10T14:19:45;100571.34;;;28.07;92.62
32237;BME280;18726;44.732;10.550;2023-06-10T14:22:49;100561.50;;;27.60;100.00
32237;BME280;18726;44.732;10.550;2023-06-10T14:25:52;100566.28;;;27.78;100.00
32237;BME280;18726;44.732;10.550;2023-06-10T14:28:56;100563.19;;;27.12;100.00
32237;BME280;18726;44.732;10.550;2023-06-10T14:31:59;100555.44;;;27.34;100.00
32237;BME280;18726;44.732;10.550;2023-06-10T14:35:03;100558.84;;;28.35;88.56
32237;BME280;18726;44.732;10.550;2023-06-10T14:38:07;100556.47;;;28.52;85.10
32237;BME280;18726;44.732;10.550;2023-06-10T14:41:10;100563.25;;;28.18;86.40
32237;BME280;18726;44.732;10.550;2023-06-10T14:44:14;100557.00;;;27.35;93.34
32237;BME280;18726;44.732;10.550;2023-06-10T14:47:17;100549.88;;;27.34;93.76
32237;BME280;18726;44.732;10.550;2023-06-10T14:50:20;100552.34;;;27.14;95.79
32237;BME280;18726;44.732;10.550;2023-06-10T14:53:24;100556.31;;;26.95;100.00
32237;BME280;18726;44.732;10.550;2023-06-10T14:56:28;100551.88;;;27.34;98.78
32237;BME280;18726;44.732;10.550;2023-06-10T14:59:33;100548.91;;;27.92;95.45
32237;BME280;18726;44.732;10.550;2023-06-10T15:02:37;100550.16;;;27.73;95.25
32237;BME280;18726;44.732;10.550;2023-06-10T15:05:41;100552.16;;;28.42;91.89
32237;BME280;18726;44.732;10.550;2023-06-10T15:08:44;100542.59;;;28.90;91.87
32237;BME280;18726;44.732;10.550;2023-06-10T15:11:49;100532.06;;;29.09;87.48
32237;BME280;18726;44.732;10.550;2023-06-10T15:14:52;100528.50;;;28.52;88.63
32237;BME280;18726;44.732;10.550;2023-06-10T15:17:56;100527.41;;;28.26;90.26
32237;BME280;18726;44.732;10.550;2023-06-10T15:20:59;100521.13;;;27.88;95.79
32237;BME280;18726;44.732;10.550;2023-06-10T15:24:03;100526.72;;;27.88;95.72
32237;BME280;18726;44.732;10.550;2023-06-10T15:27:07;100516.47;;;28.37;95.27
32237;BME280;18726;44.732;10.550;2023-06-10T15:30:11;100504.00;;;28.47;95.71
32237;BME280;18726;44.732;10.550;2023-06-10T15:33:15;100496.66;;;28.26;99.32
32237;BME280;18726;44.732;10.550;2023-06-10T15:36:18;100491.31;;;28.37;99.52
32237;BME280;18726;44.732;10.550;2023-06-10T15:39:22;100494.03;;;28.55;100.00
32237;BME280;18726;44.732;10.550;2023-06-10T15:42:27;100490.47;;;28.21;98.48
32237;BME280;18726;44.732;10.550;2023-06-10T15:45:31;100482.00;;;28.40;97.13
32237;BME280;18726;44.732;10.550;2023-06-10T15:48:35;100483.94;;;28.15;91.17
32237;BME280;18726;44.732;10.550;2023-06-10T15:51:39;100491.88;;;28.50;91.01
32237;BME280;18726;44.732;10.550;2023-06-10T15:54:42;100486.16;;;28.44;91.53
32237;BME280;18726;44.732;10.550;2023-06-10T15:57:45;100477.25;;;28.55;92.67
32237;BME280;18726;44.732;10.550;2023-06-10T16:00:49;100474.38;;;28.64;90.25
32237;BME280;18726;44.732;10.550;2023-06-10T16:03:53;100473.13;;;29.13;91.06